sensor_id;sensor_type;location;lat;lon;timestamp;temperature;humidity
5334;DHT22;2689;50.954;7.116;2022-09-12T00:02:10;14.10;99.90
5334;DHT22;2689;50.954;7.116;2022-09-12T00:04:37;14.10;99.90
5334;DHT22;2689;50.954;7.116;2022-09-12T00:07:03;14.10;99.90
5334;DHT22;2689;50.954;7.116;2022-09-12T00:09:31;14.00;99.90
5334;DHT22;2689;50.954;7.116;2022-09-12T00:11:58;14.00;99.90
5334;DHT22;2689;50.954;7.116;2022-09-12T00:14:25;13.90;99.90
5334;DHT22;2689;50.954;7.116;2022-09-12T00:16:51;13.90;99.90
5334;DHT22;2689;50.954;7.116;2022-09-12T00:19:18;13.90;99.90
5334;DHT22;2689;50.954;7.116;2022-09-12T00:21:45;13.90;99.90
5334;DHT22;2689;50.954;7.116;2022-09-12T00:24:11;13.90;99.90
5334;DHT22;2689;50.954;7.116;2022-09-12T00:26:39;13.90;99.90
5334;DHT22;2689;50.954;7.116;2022-09-12T00:29:06;14.00;99.90
5334;DHT22;2689;50.954;7.116;2022-09-12T00:31:33;13.90;99.90
5334;DHT22;2689;50.954;7.116;2022-09-12T00:34:00;13.80;99.90
5334;DHT22;2689;50.954;7.116;2022-09-12T00:36:28;13.80;99.90
5334;DHT22;2689;50.954;7.116;2022-09-12T00:38:55;13.80;99.90
5334;DHT22;2689;50.954;7.116;2022-09-12T00:41:24;13.80;99.90
5334;DHT22;2689;50.954;7.116;2022-09-12T00:43:54;13.80;99.90
5334;DHT22;2689;50.954;7.116;2022-09-12T00:46:40;13.70;99.90
5334;DHT22;2689;50.954;7.116;2022-09-12T00:49:12;13.70;99.90
5334;DHT22;2689;50.954;7.116;2022-09-12T00:51:41;13.70;99.90
5334;DHT22;2689;50.954;7.116;2022-09-12T00:54:14;13.70;99.90
5334;DHT22;2689;50.954;7.116;2022-09-12T00:56:43;13.70;99.90
5334;DHT22;2689;50.954;7.116;2022-09-12T00:59:15;13.60;99.90
5334;DHT22;2689;50.954;7.116;2022-09-12T01:01:44;13.60;99.90
5334;DHT22;2689;50.954;7.116;2022-09-12T01:04:11;13.60;99.90
5334;DHT22;2689;50.954;7.116;2022-09-12T01:06:41;13.50;99.90
5334;DHT22;2689;50.954;7.116;2022-09-12T01:09:08;13.50;99.90
5334;DHT22;2689;50.954;7.116;2022-09-12T01:11:38;13.50;99.90
5334;DHT22;2689;50.954;7.116;2022-09-12T01:14:06;13.50;99.90
5334;DHT22;2689;50.954;7.116;2022-09-12T01:16:36;13.50;99.90
5334;DHT22;2689;50.954;7.116;2022-09-12T01:19:16;13.40;99.90
5334;DHT22;2689;50.954;7.116;2022-09-12T01:21:59;13.40;99.90
5334;DHT22;2689;50.954;7.116;2022-09-12T01:24:51;13.40;99.90
5334;DHT22;2689;50.954;7.116;2022-09-12T01:27:43;13.30;99.90
5334;DHT22;2689;50.954;7.116;2022-09-12T01:30:33;13.30;99.90
5334;DHT22;2689;50.954;7.116;2022-09-12T01:33:22;13.20;99.90
5334;DHT22;2689;50.954;7.116;2022-09-12T01:35:58;13.30;99.90
5334;DHT22;2689;50.954;7.116;2022-09-12T01:38:33;13.30;99.90
5334;DHT22;2689;50.954;7.116;2022-09-12T01:41:09;13.20;99.90
5334;DHT22;2689;50.954;7.116;2022-09-12T01:43:43;13.20;99.90
5334;DHT22;2689;50.954;7.116;2022-09-12T01:46:16;13.20;99.90
5334;DHT22;2689;50.954;7.116;2022-09-12T01:48:48;13.20;99.90
5334;DHT22;2689;50.954;7.116;2022-09-12T01:51:20;13.20;99.90
5334;DHT22;2689;50.954;7.116;2022-09-12T01:53:51;13.10;99.90
5334;DHT22;2689;50.954;7.116;2022-09-12T01:56:22;13.20;99.90
5334;DHT22;2689;50.954;7.116;2022-09-12T01:58:53;13.20;99.90
5334;DHT22;2689;50.954;7.116;2022-09-12T02:01:26;13.20;99.90
5334;DHT22;2689;50.954;7.116;2022-09-12T02:03:57;13.20;99.90
5334;DHT22;2689;50.954;7.116;2022-09-12T02:06:30;13.10;99.90
5334;DHT22;2689;50.954;7.116;2022-09-12T02:09:00;13.10;99.90
5334;DHT22;2689;50.954;7.116;2022-09-12T02:11:31;13.10;99.90
5334;DHT22;2689;50.954;7.116;2022-09-12T02:14:02;13.10;99.90
5334;DHT22;2689;50.954;7.116;2022-09-12T02:16:37;13.00;99.90
5334;DHT22;2689;50.954;7.116;2022-09-12T02:19:09;13.00;99.90
5334;DHT22;2689;50.954;7.116;2022-09-12T02:21:39;13.00;99.90
5334;DHT22;2689;50.954;7.116;2022-09-12T02:24:08;13.00;99.90
5334;DHT22;2689;50.954;7.116;2022-09-12T02:26:41;13.00;99.90
5334;DHT22;2689;50.954;7.116;2022-09-12T02:29:09;13.00;99.90
5334;DHT22;2689;50.954;7.116;2022-09-12T02:31:41;12.90;99.90
5334;DHT22;2689;50.954;7.116;2022-09-12T02:34:21;12.90;99.90
5334;DHT22;2689;50.954;7.116;2022-09-12T02:36:56;12.90;99.90
5334;DHT22;2689;50.954;7.116;2022-09-12T02:39:24;12.90;99.90
5334;DHT22;2689;50.954;7.116;2022-09-12T02:41:54;12.90;99.90
5334;DHT22;2689;50.954;7.116;2022-09-12T02:44:23;12.90;99.90
5334;DHT22;2689;50.954;7.116;2022-09-12T02:46:55;12.90;99.90
5334;DHT22;2689;50.954;7.116;2022-09-12T02:49:23;12.90;99.90
5334;DHT22;2689;50.954;7.116;2022-09-12T02:51:50;12.90;99.90
5334;DHT22;2689;50.954;7.116;2022-09-12T02:54:18;12.90;99.90
5334;DHT22;2689;50.954;7.116;2022-09-12T02:56:45;12.90;99.90
5334;DHT22;2689;50.954;7.116;2022-09-12T02:59:15;12.90;99.90
5334;DHT22;2689;50.954;7.116;2022-09-12T03:02:09;12.90;99.90
5334;DHT22;2689;50.954;7.116;2022-09-12T03:04:57;12.90;99.90
5334;DHT22;2689;50.954;7.116;2022-09-12T03:07:37;12.90;99.90
5334;DHT22;2689;50.954;7.116;2022-09-12T03:10:12;12.90;99.90
5334;DHT22;2689;50.954;7.116;2022-09-12T03:12:46;12.90;99.90
5334;DHT22;2689;50.954;7.116;2022-09-12T03:15:27;12.90;99.90
5334;DHT22;2689;50.954;7.116;2022-09-12T03:18:11;12.90;99.90
5334;DHT22;2689;50.954;7.116;2022-09-12T03:20:50;12.90;99.90
5334;DHT22;2689;50.954;7.116;2022-09-12T03:23:25;12.90;99.90
5334;DHT22;2689;50.954;7.116;2022-09-12T03:25:58;12.90;99.90
5334;DHT22;2689;50.954;7.116;2022-09-12T03:28:39;12.90;99.90
5334;DHT22;2689;50.954;7.116;2022-09-12T03:31:12;12.90;99.90
5334;DHT22;2689;50.954;7.116;2022-09-12T03:33:41;12.90;99.90
5334;DHT22;2689;50.954;7.116;2022-09-12T03:36:14;12.90;99.90
5334;DHT22;2689;50.954;7.116;2022-09-12T03:38:41;12.90;99.90
5334;DHT22;2689;50.954;7.116;2022-09-12T03:41:08;12.80;99.90
5334;DHT22;2689;50.954;7.116;2022-09-12T03:43:34;12.90;99.90
5334;DHT22;2689;50.954;7.116;2022-09-12T03:46:01;12.90;99.90
5334;DHT22;2689;50.954;7.116;2022-09-12T03:48:28;12.90;99.90
5334;DHT22;2689;50.954;7.116;2022-09-12T03:51:00;12.90;99.90
5334;DHT22;2689;50.954;7.116;2022-09-12T03:53:26;12.90;99.90
5334;DHT22;2689;50.954;7.116;2022-09-12T03:55:53;12.90;99.90
5334;DHT22;2689;50.954;7.116;2022-09-12T03:58:20;12.80;99.90
5334;DHT22;2689;50.954;7.116;2022-09-12T04:00:46;12.80;99.90
5334;DHT22;2689;50.954;7.116;2022-09-12T04:03:13;12.80;99.90
5334;DHT22;2689;50.954;7.116;2022-09-12T04:05:40;12.80;99.90
5334;DHT22;2689;50.954;7.116;2022-09-12T04:08:08;12.80;99.90
5334;DHT22;2689;50.954;7.116;2022-09-12T04:10:35;12.80;99.90
5334;DHT22;2689;50.954;7.116;2022-09-12T04:13:01;12.80;99.90
5334;DHT22;2689;50.954;7.116;2022-09-12T04:15:28;12.80;99.90
5334;DHT22;2689;50.954;7.116;2022-09-12T04:17:55;12.80;99.90
5334;DHT22;2689;50.954;7.116;2022-09-12T04:20:21;12.80;99.90
5334;DHT22;2689;50.954;7.116;2022-09-12T04:22:49;12.80;99.90
5334;DHT22;2689;50.954;7.116;2022-09-12T04:25:17;12.80;99.90
5334;DHT22;2689;50.954;7.116;2022-09-12T04:27:43;12.80;99.90
5334;DHT22;2689;50.954;7.116;2022-09-12T04:30:11;12.80;99.90
5334;DHT22;2689;50.954;7.116;2022-09-12T04:32:38;12.70;99.90
5334;DHT22;2689;50.954;7.116;2022-09-12T04:35:06;12.70;99.90
5334;DHT22;2689;50.954;7.116;2022-09-12T04:37:33;12.70;99.90
5334;DHT22;2689;50.954;7.116;2022-09-12T04:39:59;12.70;99.90
5334;DHT22;2689;50.954;7.116;2022-09-12T04:42:28;12.70;99.90
5334;DHT22;2689;50.954;7.116;2022-09-12T04:44:55;12.60;99.90
5334;DHT22;2689;50.954;7.116;2022-09-12T04:47:22;12.60;99.90
5334;DHT22;2689;50.954;7.116;2022-09-12T04:49:48;12.60;99.90
5334;DHT22;2689;50.954;7.116;2022-09-12T04:52:15;12.60;99.90
5334;DHT22;2689;50.954;7.116;2022-09-12T04:54:42;12.60;99.90
5334;DHT22;2689;50.954;7.116;2022-09-12T04:57:09;12.70;99.90
5334;DHT22;2689;50.954;7.116;2022-09-12T04:59:37;12.60;99.90
5334;DHT22;2689;50.954;7.116;2022-09-12T05:02:04;12.60;99.90
5334;DHT22;2689;50.954;7.116;2022-09-12T05:04:31;12.60;99.90
5334;DHT22;2689;50.954;7.116;2022-09-12T05:06:58;12.60;99.90
5334;DHT22;2689;50.954;7.116;2022-09-12T05:09:25;12.60;99.90
5334;DHT22;2689;50.954;7.116;2022-09-12T05:11:51;12.60;99.90
5334;DHT22;2689;50.954;7.116;2022-09-12T05:14:18;12.70;99.90
5334;DHT22;2689;50.954;7.116;2022-09-12T05:16:46;12.70;99.90
5334;DHT22;2689;50.954;7.116;2022-09-12T05:19:13;12.70;99.90
5334;DHT22;2689;50.954;7.116;2022-09-12T05:21:40;12.70;99.90
5334;DHT22;2689;50.954;7.116;2022-09-12T05:24:08;12.80;99.90
5334;DHT22;2689;50.954;7.116;2022-09-12T05:26:35;12.90;99.90
5334;DHT22;2689;50.954;7.116;2022-09-12T05:29:03;12.90;99.90
5334;DHT22;2689;50.954;7.116;2022-09-12T05:31:30;13.00;99.90
5334;DHT22;2689;50.954;7.116;2022-09-12T05:33:58;13.00;99.90
5334;DHT22;2689;50.954;7.116;2022-09-12T05:36:27;13.00;99.90
5334;DHT22;2689;50.954;7.116;2022-09-12T05:38:54;13.10;99.90
5334;DHT22;2689;50.954;7.116;2022-09-12T05:41:23;13.20;99.90
5334;DHT22;2689;50.954;7.116;2022-09-12T05:43:51;13.30;99.90
5334;DHT22;2689;50.954;7.116;2022-09-12T05:46:20;13.30;99.90
5334;DHT22;2689;50.954;7.116;2022-09-12T05:48:47;13.40;99.90
5334;DHT22;2689;50.954;7.116;2022-09-12T05:51:18;13.40;99.90
5334;DHT22;2689;50.954;7.116;2022-09-12T05:53:46;13.50;99.90
5334;DHT22;2689;50.954;7.116;2022-09-12T05:56:15;13.60;99.90
5334;DHT22;2689;50.954;7.116;2022-09-12T05:58:44;13.70;99.90
5334;DHT22;2689;50.954;7.116;2022-09-12T06:01:13;13.80;99.90
5334;DHT22;2689;50.954;7.116;2022-09-12T06:03:42;13.90;99.90
5334;DHT22;2689;50.954;7.116;2022-09-12T06:06:10;14.00;99.90
5334;DHT22;2689;50.954;7.116;2022-09-12T06:08:40;14.00;99.90
5334;DHT22;2689;50.954;7.116;2022-09-12T06:11:07;14.10;99.90
5334;DHT22;2689;50.954;7.116;2022-09-12T06:13:37;14.20;99.90
5334;DHT22;2689;50.954;7.116;2022-09-12T06:16:06;14.30;99.90
5334;DHT22;2689;50.954;7.116;2022-09-12T06:18:34;14.40;99.90
5334;DHT22;2689;50.954;7.116;2022-09-12T06:21:02;14.50;99.90
5334;DHT22;2689;50.954;7.116;2022-09-12T06:23:29;14.60;99.90
5334;DHT22;2689;50.954;7.116;2022-09-12T06:25:58;14.70;99.90
5334;DHT22;2689;50.954;7.116;2022-09-12T06:28:25;14.80;99.90
5334;DHT22;2689;50.954;7.116;2022-09-12T06:30:52;14.90;99.90
5334;DHT22;2689;50.954;7.116;2022-09-12T06:33:19;15.10;99.90
5334;DHT22;2689;50.954;7.116;2022-09-12T06:35:46;15.20;99.90
5334;DHT22;2689;50.954;7.116;2022-09-12T06:38:13;15.40;99.90
5334;DHT22;2689;50.954;7.116;2022-09-12T06:40:41;15.60;99.90
5334;DHT22;2689;50.954;7.116;2022-09-12T06:43:11;15.80;99.90
5334;DHT22;2689;50.954;7.116;2022-09-12T06:45:39;16.00;99.90
5334;DHT22;2689;50.954;7.116;2022-09-12T06:48:05;16.20;99.90
5334;DHT22;2689;50.954;7.116;2022-09-12T06:50:32;16.30;99.90
5334;DHT22;2689;50.954;7.116;2022-09-12T06:52:59;16.50;99.90
5334;DHT22;2689;50.954;7.116;2022-09-12T06:55:26;16.70;99.90
5334;DHT22;2689;50.954;7.116;2022-09-12T06:57:53;16.80;99.90
5334;DHT22;2689;50.954;7.116;2022-09-12T07:00:21;17.00;99.90
5334;DHT22;2689;50.954;7.116;2022-09-12T07:02:53;17.10;99.90
5334;DHT22;2689;50.954;7.116;2022-09-12T07:05:19;17.30;99.90
5334;DHT22;2689;50.954;7.116;2022-09-12T07:07:46;17.50;99.90
5334;DHT22;2689;50.954;7.116;2022-09-12T07:10:13;17.70;99.90
5334;DHT22;2689;50.954;7.116;2022-09-12T07:12:40;17.90;99.90
5334;DHT22;2689;50.954;7.116;2022-09-12T07:15:07;18.10;99.90
5334;DHT22;2689;50.954;7.116;2022-09-12T07:17:36;18.40;99.90
5334;DHT22;2689;50.954;7.116;2022-09-12T07:20:03;18.70;99.90
5334;DHT22;2689;50.954;7.116;2022-09-12T07:22:30;19.10;99.90
5334;DHT22;2689;50.954;7.116;2022-09-12T07:24:56;19.40;99.90
5334;DHT22;2689;50.954;7.116;2022-09-12T07:27:23;19.70;99.90
5334;DHT22;2689;50.954;7.116;2022-09-12T07:29:50;19.90;99.90
5334;DHT22;2689;50.954;7.116;2022-09-12T07:32:17;20.10;99.90
5334;DHT22;2689;50.954;7.116;2022-09-12T07:34:45;20.10;99.90
5334;DHT22;2689;50.954;7.116;2022-09-12T07:37:11;20.30;99.90
5334;DHT22;2689;50.954;7.116;2022-09-12T07:39:38;20.30;99.90
5334;DHT22;2689;50.954;7.116;2022-09-12T07:42:05;20.30;99.60
5334;DHT22;2689;50.954;7.116;2022-09-12T07:44:32;20.20;99.50
5334;DHT22;2689;50.954;7.116;2022-09-12T07:46:59;20.30;99.70
5334;DHT22;2689;50.954;7.116;2022-09-12T07:49:26;20.60;99.20
5334;DHT22;2689;50.954;7.116;2022-09-12T07:51:55;20.90;99.20
5334;DHT22;2689;50.954;7.116;2022-09-12T07:54:22;21.40;98.40
5334;DHT22;2689;50.954;7.116;2022-09-12T07:56:49;21.80;96.70
5334;DHT22;2689;50.954;7.116;2022-09-12T07:59:16;22.00;95.60
5334;DHT22;2689;50.954;7.116;2022-09-12T08:01:43;22.20;95.40
5334;DHT22;2689;50.954;7.116;2022-09-12T08:04:10;22.50;94.70
5334;DHT22;2689;50.954;7.116;2022-09-12T08:06:36;23.00;94.70
5334;DHT22;2689;50.954;7.116;2022-09-12T08:09:04;23.60;91.70
5334;DHT22;2689;50.954;7.116;2022-09-12T08:11:32;23.70;90.90
5334;DHT22;2689;50.954;7.116;2022-09-12T08:13:59;24.00;91.20
5334;DHT22;2689;50.954;7.116;2022-09-12T08:16:29;24.40;90.70
5334;DHT22;2689;50.954;7.116;2022-09-12T08:18:56;24.60;90.30
5334;DHT22;2689;50.954;7.116;2022-09-12T08:21:25;24.50;86.60
5334;DHT22;2689;50.954;7.116;2022-09-12T08:23:54;24.00;87.50
5334;DHT22;2689;50.954;7.116;2022-09-12T08:26:22;23.50;90.30
5334;DHT22;2689;50.954;7.116;2022-09-12T08:28:50;23.20;90.60
5334;DHT22;2689;50.954;7.116;2022-09-12T08:31:19;23.30;91.90
5334;DHT22;2689;50.954;7.116;2022-09-12T08:33:46;23.60;91.30
5334;DHT22;2689;50.954;7.116;2022-09-12T08:36:15;23.60;90.30
5334;DHT22;2689;50.954;7.116;2022-09-12T08:38:44;23.50;90.90
5334;DHT22;2689;50.954;7.116;2022-09-12T08:41:17;23.40;91.70
5334;DHT22;2689;50.954;7.116;2022-09-12T08:44:04;23.60;90.70
5334;DHT22;2689;50.954;7.116;2022-09-12T08:46:39;24.10;91.10
5334;DHT22;2689;50.954;7.116;2022-09-12T08:49:12;24.90;90.30
5334;DHT22;2689;50.954;7.116;2022-09-12T08:51:40;25.90;86.20
5334;DHT22;2689;50.954;7.116;2022-09-12T08:54:20;27.50;82.00
5334;DHT22;2689;50.954;7.116;2022-09-12T08:56:50;29.20;73.80
5334;DHT22;2689;50.954;7.116;2022-09-12T08:59:20;30.40;67.90
5334;DHT22;2689;50.954;7.116;2022-09-12T09:01:48;31.10;62.10
5334;DHT22;2689;50.954;7.116;2022-09-12T09:04:30;31.00;59.90
5334;DHT22;2689;50.954;7.116;2022-09-12T09:07:24;31.10;58.80
5334;DHT22;2689;50.954;7.116;2022-09-12T09:10:05;31.70;59.00
5334;DHT22;2689;50.954;7.116;2022-09-12T09:12:41;32.50;57.60
5334;DHT22;2689;50.954;7.116;2022-09-12T09:15:25;32.60;54.00
5334;DHT22;2689;50.954;7.116;2022-09-12T09:17:59;32.70;54.80
5334;DHT22;2689;50.954;7.116;2022-09-12T09:20:42;33.00;54.20
5334;DHT22;2689;50.954;7.116;2022-09-12T09:23:15;33.60;53.00
5334;DHT22;2689;50.954;7.116;2022-09-12T09:25:54;33.80;50.50
5334;DHT22;2689;50.954;7.116;2022-09-12T09:28:30;34.40;50.50
5334;DHT22;2689;50.954;7.116;2022-09-12T09:30:59;34.40;48.40
5334;DHT22;2689;50.954;7.116;2022-09-12T09:33:31;34.40;49.80
5334;DHT22;2689;50.954;7.116;2022-09-12T09:36:04;34.10;47.70
5334;DHT22;2689;50.954;7.116;2022-09-12T09:38:40;33.60;48.40
5334;DHT22;2689;50.954;7.116;2022-09-12T09:41:28;33.30;48.50
5334;DHT22;2689;50.954;7.116;2022-09-12T09:44:05;32.40;50.10
5334;DHT22;2689;50.954;7.116;2022-09-12T09:46:35;32.20;51.10
5334;DHT22;2689;50.954;7.116;2022-09-12T09:49:03;32.10;52.10
5334;DHT22;2689;50.954;7.116;2022-09-12T09:51:34;32.70;50.80
5334;DHT22;2689;50.954;7.116;2022-09-12T09:54:09;33.60;49.40
5334;DHT22;2689;50.954;7.116;2022-09-12T09:56:40;34.50;48.00
5334;DHT22;2689;50.954;7.116;2022-09-12T09:59:09;35.30;47.40
5334;DHT22;2689;50.954;7.116;2022-09-12T10:01:43;35.50;44.30
5334;DHT22;2689;50.954;7.116;2022-09-12T10:04:18;35.40;43.90
5334;DHT22;2689;50.954;7.116;2022-09-12T10:06:54;35.00;44.90
5334;DHT22;2689;50.954;7.116;2022-09-12T10:09:26;35.00;44.00
5334;DHT22;2689;50.954;7.116;2022-09-12T10:11:55;35.20;45.00
5334;DHT22;2689;50.954;7.116;2022-09-12T10:14:32;35.30;44.60
5334;DHT22;2689;50.954;7.116;2022-09-12T10:17:02;36.00;45.10
5334;DHT22;2689;50.954;7.116;2022-09-12T10:19:36;36.70;42.60
5334;DHT22;2689;50.954;7.116;2022-09-12T10:22:05;37.20;40.90
5334;DHT22;2689;50.954;7.116;2022-09-12T10:24:39;37.30;39.90
5334;DHT22;2689;50.954;7.116;2022-09-12T10:27:13;36.90;40.00
5334;DHT22;2689;50.954;7.116;2022-09-12T10:29:44;37.00;39.50
5334;DHT22;2689;50.954;7.116;2022-09-12T10:32:23;37.00;39.50
5334;DHT22;2689;50.954;7.116;2022-09-12T10:34:57;37.10;38.70
5334;DHT22;2689;50.954;7.116;2022-09-12T10:37:29;36.60;40.20
5334;DHT22;2689;50.954;7.116;2022-09-12T10:39:58;37.10;39.50
5334;DHT22;2689;50.954;7.116;2022-09-12T10:42:46;37.30;39.00
5334;DHT22;2689;50.954;7.116;2022-09-12T10:45:22;38.00;38.30
5334;DHT22;2689;50.954;7.116;2022-09-12T10:47:51;38.40;36.40
5334;DHT22;2689;50.954;7.116;2022-09-12T10:50:24;38.20;36.30
5334;DHT22;2689;50.954;7.116;2022-09-12T10:52:51;38.20;36.30
5334;DHT22;2689;50.954;7.116;2022-09-12T10:55:23;38.10;36.80
5334;DHT22;2689;50.954;7.116;2022-09-12T10:58:07;38.30;36.00
5334;DHT22;2689;50.954;7.116;2022-09-12T11:00:40;38.60;36.40
5334;DHT22;2689;50.954;7.116;2022-09-12T11:03:22;38.60;34.70
5334;DHT22;2689;50.954;7.116;2022-09-12T11:05:54;38.60;34.10
5334;DHT22;2689;50.954;7.116;2022-09-12T11:08:37;38.40;36.30
5334;DHT22;2689;50.954;7.116;2022-09-12T11:11:13;38.50;35.20
5334;DHT22;2689;50.954;7.116;2022-09-12T11:13:56;38.70;35.70
5334;DHT22;2689;50.954;7.116;2022-09-12T11:16:33;38.40;36.30
5334;DHT22;2689;50.954;7.116;2022-09-12T11:19:18;38.60;35.20
5334;DHT22;2689;50.954;7.116;2022-09-12T11:22:01;38.70;34.40
5334;DHT22;2689;50.954;7.116;2022-09-12T11:24:44;38.40;34.10
5334;DHT22;2689;50.954;7.116;2022-09-12T11:27:31;38.00;35.40
5334;DHT22;2689;50.954;7.116;2022-09-12T11:30:03;38.00;35.20
5334;DHT22;2689;50.954;7.116;2022-09-12T11:33:05;37.60;34.30
5334;DHT22;2689;50.954;7.116;2022-09-12T11:35:38;36.70;37.60
5334;DHT22;2689;50.954;7.116;2022-09-12T11:38:23;36.40;35.20
5334;DHT22;2689;50.954;7.116;2022-09-12T11:40:58;35.30;37.50
5334;DHT22;2689;50.954;7.116;2022-09-12T11:43:36;35.20;38.70
5334;DHT22;2689;50.954;7.116;2022-09-12T11:46:11;35.70;37.90
5334;DHT22;2689;50.954;7.116;2022-09-12T11:48:52;35.90;35.00
5334;DHT22;2689;50.954;7.116;2022-09-12T11:51:25;35.90;36.20
5334;DHT22;2689;50.954;7.116;2022-09-12T11:54:02;35.80;35.40
5334;DHT22;2689;50.954;7.116;2022-09-12T11:56:30;35.80;35.60
5334;DHT22;2689;50.954;7.116;2022-09-12T11:59:02;36.00;35.20
5334;DHT22;2689;50.954;7.116;2022-09-12T12:01:37;36.00;35.40
5334;DHT22;2689;50.954;7.116;2022-09-12T12:04:09;36.10;35.70
5334;DHT22;2689;50.954;7.116;2022-09-12T12:06:46;36.50;35.20
5334;DHT22;2689;50.954;7.116;2022-09-12T12:09:14;36.80;34.80
5334;DHT22;2689;50.954;7.116;2022-09-12T12:11:45;36.70;34.30
5334;DHT22;2689;50.954;7.116;2022-09-12T12:14:16;36.60;35.30
5334;DHT22;2689;50.954;7.116;2022-09-12T12:16:46;36.90;33.80
5334;DHT22;2689;50.954;7.116;2022-09-12T12:19:31;36.90;33.50
5334;DHT22;2689;50.954;7.116;2022-09-12T12:22:11;36.60;34.00
5334;DHT22;2689;50.954;7.116;2022-09-12T12:24:53;36.20;34.20
5334;DHT22;2689;50.954;7.116;2022-09-12T12:27:45;35.80;34.80
5334;DHT22;2689;50.954;7.116;2022-09-12T12:33:52;35.90;34.90
5334;DHT22;2689;50.954;7.116;2022-09-12T12:36:37;36.00;33.40
5334;DHT22;2689;50.954;7.116;2022-09-12T12:48:47;35.20;34.30
5334;DHT22;2689;50.954;7.116;2022-09-12T12:54:26;34.20;37.00
5334;DHT22;2689;50.954;7.116;2022-09-12T12:57:04;34.30;36.30
5334;DHT22;2689;50.954;7.116;2022-09-12T12:59:31;34.20;36.70
5334;DHT22;2689;50.954;7.116;2022-09-12T13:01:59;34.20;36.80
5334;DHT22;2689;50.954;7.116;2022-09-12T13:04:29;34.20;37.00
5334;DHT22;2689;50.954;7.116;2022-09-12T13:07:00;33.80;36.40
5334;DHT22;2689;50.954;7.116;2022-09-12T13:09:31;33.80;36.90
5334;DHT22;2689;50.954;7.116;2022-09-12T13:12:02;33.90;36.60
5334;DHT22;2689;50.954;7.116;2022-09-12T13:14:52;34.10;36.60
5334;DHT22;2689;50.954;7.116;2022-09-12T13:17:23;33.70;36.50
5334;DHT22;2689;50.954;7.116;2022-09-12T13:19:58;33.80;37.60
5334;DHT22;2689;50.954;7.116;2022-09-12T13:22:37;34.00;36.60
5334;DHT22;2689;50.954;7.116;2022-09-12T13:25:22;34.10;36.50
5334;DHT22;2689;50.954;7.116;2022-09-12T13:28:00;33.90;36.30
5334;DHT22;2689;50.954;7.116;2022-09-12T13:30:30;34.00;37.40
5334;DHT22;2689;50.954;7.116;2022-09-12T13:35:59;34.60;35.50
5334;DHT22;2689;50.954;7.116;2022-09-12T13:38:35;34.80;35.90
5334;DHT22;2689;50.954;7.116;2022-09-12T13:41:25;35.10;35.00
5334;DHT22;2689;50.954;7.116;2022-09-12T13:43:57;35.20;34.70
5334;DHT22;2689;50.954;7.116;2022-09-12T13:46:27;35.30;34.00
5334;DHT22;2689;50.954;7.116;2022-09-12T13:48:56;34.90;33.90
5334;DHT22;2689;50.954;7.116;2022-09-12T13:51:27;34.70;34.50
5334;DHT22;2689;50.954;7.116;2022-09-12T13:53:58;34.80;35.00
5334;DHT22;2689;50.954;7.116;2022-09-12T13:56:26;35.10;34.30
5334;DHT22;2689;50.954;7.116;2022-09-12T13:58:53;35.00;33.50
5334;DHT22;2689;50.954;7.116;2022-09-12T14:01:22;34.70;35.00
5334;DHT22;2689;50.954;7.116;2022-09-12T14:03:50;34.50;34.60
5334;DHT22;2689;50.954;7.116;2022-09-12T14:06:42;34.30;35.10
5334;DHT22;2689;50.954;7.116;2022-09-12T14:09:12;34.40;34.90
5334;DHT22;2689;50.954;7.116;2022-09-12T14:11:40;34.30;34.70
5334;DHT22;2689;50.954;7.116;2022-09-12T14:14:19;34.10;35.30
5334;DHT22;2689;50.954;7.116;2022-09-12T14:16:46;34.10;36.10
5334;DHT22;2689;50.954;7.116;2022-09-12T14:19:14;34.00;36.60
5334;DHT22;2689;50.954;7.116;2022-09-12T14:21:45;34.20;35.90
5334;DHT22;2689;50.954;7.116;2022-09-12T14:24:12;34.50;35.40
5334;DHT22;2689;50.954;7.116;2022-09-12T14:26:41;34.50;35.30
5334;DHT22;2689;50.954;7.116;2022-09-12T14:29:11;34.10;36.00
5334;DHT22;2689;50.954;7.116;2022-09-12T14:31:41;33.70;35.70
5334;DHT22;2689;50.954;7.116;2022-09-12T14:34:11;33.20;36.80
5334;DHT22;2689;50.954;7.116;2022-09-12T14:36:47;32.70;37.80
5334;DHT22;2689;50.954;7.116;2022-09-12T14:39:21;32.30;38.10
5334;DHT22;2689;50.954;7.116;2022-09-12T14:41:58;31.70;38.50
5334;DHT22;2689;50.954;7.116;2022-09-12T14:44:27;31.30;39.70
5334;DHT22;2689;50.954;7.116;2022-09-12T14:46:59;31.00;40.80
5334;DHT22;2689;50.954;7.116;2022-09-12T14:49:31;30.80;40.30
5334;DHT22;2689;50.954;7.116;2022-09-12T14:52:02;30.30;41.70
5334;DHT22;2689;50.954;7.116;2022-09-12T14:54:37;30.00;42.20
5334;DHT22;2689;50.954;7.116;2022-09-12T14:57:31;29.80;43.00
5334;DHT22;2689;50.954;7.116;2022-09-12T15:00:19;29.60;43.00
5334;DHT22;2689;50.954;7.116;2022-09-12T15:02:47;29.30;43.40
5334;DHT22;2689;50.954;7.116;2022-09-12T15:05:17;29.00;44.30
5334;DHT22;2689;50.954;7.116;2022-09-12T15:07:52;28.80;45.60
5334;DHT22;2689;50.954;7.116;2022-09-12T15:10:22;28.60;45.50
5334;DHT22;2689;50.954;7.116;2022-09-12T15:13:03;28.50;46.70
5334;DHT22;2689;50.954;7.116;2022-09-12T15:15:37;28.30;46.30
5334;DHT22;2689;50.954;7.116;2022-09-12T15:18:04;28.20;47.90
5334;DHT22;2689;50.954;7.116;2022-09-12T15:20:32;28.20;47.80
5334;DHT22;2689;50.954;7.116;2022-09-12T15:23:00;28.00;47.60
5334;DHT22;2689;50.954;7.116;2022-09-12T15:25:27;27.90;48.20
5334;DHT22;2689;50.954;7.116;2022-09-12T15:27:54;27.70;48.90
5334;DHT22;2689;50.954;7.116;2022-09-12T15:30:21;27.70;49.20
5334;DHT22;2689;50.954;7.116;2022-09-12T15:32:48;27.60;49.00
5334;DHT22;2689;50.954;7.116;2022-09-12T15:35:16;27.50;49.50
5334;DHT22;2689;50.954;7.116;2022-09-12T15:37:43;27.60;50.50
5334;DHT22;2689;50.954;7.116;2022-09-12T15:40:12;27.60;50.00
5334;DHT22;2689;50.954;7.116;2022-09-12T15:42:39;27.60;49.90
5334;DHT22;2689;50.954;7.116;2022-09-12T15:45:14;27.50;49.30
5334;DHT22;2689;50.954;7.116;2022-09-12T15:47:43;27.50;50.10
5334;DHT22;2689;50.954;7.116;2022-09-12T15:50:10;27.40;50.40
5334;DHT22;2689;50.954;7.116;2022-09-12T15:52:36;27.30;50.20
5334;DHT22;2689;50.954;7.116;2022-09-12T15:55:04;27.20;51.30
5334;DHT22;2689;50.954;7.116;2022-09-12T15:57:33;27.10;51.40
5334;DHT22;2689;50.954;7.116;2022-09-12T15:59:59;27.00;51.40
5334;DHT22;2689;50.954;7.116;2022-09-12T16:02:26;26.80;51.40
5334;DHT22;2689;50.954;7.116;2022-09-12T16:04:53;26.70;51.70
5334;DHT22;2689;50.954;7.116;2022-09-12T16:07:20;26.60;51.90
5334;DHT22;2689;50.954;7.116;2022-09-12T16:09:46;26.50;52.00
5334;DHT22;2689;50.954;7.116;2022-09-12T16:12:14;26.40;52.10
5334;DHT22;2689;50.954;7.116;2022-09-12T16:14:42;26.40;52.60
5334;DHT22;2689;50.954;7.116;2022-09-12T16:17:09;26.30;52.70
5334;DHT22;2689;50.954;7.116;2022-09-12T16:19:36;26.20;53.30
5334;DHT22;2689;50.954;7.116;2022-09-12T16:22:03;26.20;53.40
5334;DHT22;2689;50.954;7.116;2022-09-12T16:24:29;26.10;53.80
5334;DHT22;2689;50.954;7.116;2022-09-12T16:26:56;26.00;53.70
5334;DHT22;2689;50.954;7.116;2022-09-12T16:29:23;26.00;53.90
5334;DHT22;2689;50.954;7.116;2022-09-12T16:31:51;26.00;54.00
5334;DHT22;2689;50.954;7.116;2022-09-12T16:34:18;25.90;54.20
5334;DHT22;2689;50.954;7.116;2022-09-12T16:36:45;25.80;54.90
5334;DHT22;2689;50.954;7.116;2022-09-12T16:39:11;25.80;55.00
5334;DHT22;2689;50.954;7.116;2022-09-12T16:41:38;25.70;54.50
5334;DHT22;2689;50.954;7.116;2022-09-12T16:44:06;25.60;55.00
5334;DHT22;2689;50.954;7.116;2022-09-12T16:46:33;25.60;55.30
5334;DHT22;2689;50.954;7.116;2022-09-12T16:49:01;25.50;56.00